createdAt,value
2023-03-19T00:02:49.896Z,10.75
2023-03-19T00:05:54.063Z,10.71
2023-03-19T00:08:56.883Z,10.73
2023-03-19T00:12:01.061Z,10.75
2023-03-19T00:15:03.956Z,10.75
2023-03-19T00:18:07.680Z,10.75
2023-03-19T00:21:10.805Z,10.78
2023-03-19T00:24:14.072Z,10.77
2023-03-19T00:27:18.805Z,10.86
2023-03-19T00:30:22.732Z,10.94
2023-03-19T00:33:26.534Z,10.96
2023-03-19T00:36:30.372Z,10.96
2023-03-19T00:39:33.660Z,10.93
2023-03-19T00:42:37.840Z,10.92
2023-03-19T00:45:41.451Z,10.89
2023-03-19T00:48:44.444Z,10.95
2023-03-19T00:51:47.830Z,10.98
2023-03-19T00:54:51.063Z,10.94
2023-03-19T00:57:56.050Z,10.98
2023-03-19T01:00:58.952Z,10.95
2023-03-19T01:04:01.811Z,10.93
2023-03-19T01:07:04.918Z,10.94
2023-03-19T01:10:08.633Z,10.79
2023-03-19T01:13:13.308Z,10.75
2023-03-19T01:16:16.379Z,10.82
2023-03-19T01:19:20.156Z,10.82
2023-03-19T01:22:22.986Z,10.91
2023-03-19T01:25:25.787Z,10.87
2023-03-19T01:28:30.060Z,10.87
2023-03-19T01:31:33.003Z,10.95
2023-03-19T01:34:36.740Z,11.03
2023-03-19T01:37:39.500Z,11.07
2023-03-19T01:40:46.032Z,11.13
2023-03-19T01:43:50.870Z,11.11
2023-03-19T01:46:54.128Z,11.18
2023-03-19T01:49:58.345Z,11.21
2023-03-19T01:53:01.956Z,11.20
2023-03-19T01:56:09.805Z,11.23
2023-03-19T01:59:18.457Z,11.26
2023-03-19T02:02:26.241Z,11.36
2023-03-19T02:05:29.790Z,11.53
2023-03-19T02:08:35.016Z,11.64
2023-03-19T02:11:39.001Z,11.73
2023-03-19T02:14:43.400Z,11.81
2023-03-19T02:17:47.576Z,11.89
2023-03-19T02:20:56.672Z,11.92
2023-03-19T02:24:08.441Z,11.84
2023-03-19T02:27:13.129Z,11.78
2023-03-19T02:30:22.215Z,11.69
2023-03-19T02:33:25.089Z,11.64
2023-03-19T02:36:32.911Z,11.57
2023-03-19T02:39:41.242Z,11.63
2023-03-19T02:42:45.574Z,11.66
2023-03-19T02:45:48.825Z,11.70
2023-03-19T02:48:52.649Z,11.57
2023-03-19T02:51:55.488Z,11.53
2023-03-19T02:54:58.293Z,11.51
2023-03-19T02:58:02.495Z,11.50
2023-03-19T03:01:06.394Z,11.53
2023-03-19T03:04:09.647Z,11.50
2023-03-19T03:07:12.977Z,11.48
2023-03-19T03:10:15.801Z,11.46
2023-03-19T03:13:20.016Z,11.43
2023-03-19T03:16:23.013Z,11.44
2023-03-19T03:19:25.927Z,11.36
2023-03-19T03:22:28.995Z,11.38
2023-03-19T03:25:31.749Z,11.34
2023-03-19T03:28:35.850Z,11.27
2023-03-19T03:31:38.763Z,11.22
2023-03-19T03:34:42.100Z,11.23
2023-03-19T03:37:44.866Z,11.24
2023-03-19T03:40:51.588Z,11.23
2023-03-19T03:43:56.368Z,11.17
2023-03-19T03:46:59.280Z,11.22
2023-03-19T03:50:01.990Z,11.12
2023-03-19T03:53:04.973Z,11.05
2023-03-19T03:56:08.570Z,11.12
2023-03-19T03:59:12.934Z,11.09
2023-03-19T04:02:15.932Z,11.11
2023-03-19T04:05:19.170Z,11.08
2023-03-19T04:08:22.605Z,11.04
2023-03-19T04:11:25.895Z,11.07
2023-03-19T04:14:30.407Z,11.07
2023-03-19T04:17:33.310Z,11.06
2023-03-19T04:20:36.683Z,11.06
2023-03-19T04:23:39.516Z,11.02
2023-03-19T04:26:42.463Z,11.03
2023-03-19T04:29:46.670Z,11.02
2023-03-19T04:32:49.458Z,11.07
2023-03-19T04:35:52.324Z,11.07
2023-03-19T04:38:55.179Z,11.06
2023-03-19T04:41:58.082Z,11.11
2023-03-19T04:45:02.400Z,11.11
2023-03-19T04:48:05.712Z,11.07
2023-03-19T04:51:09.631Z,11.09
2023-03-19T04:54:12.523Z,11.13
2023-03-19T04:57:15.234Z,11.20
2023-03-19T05:00:20.521Z,11.19
2023-03-19T05:03:23.440Z,11.16
2023-03-19T05:06:27.164Z,11.14
2023-03-19T05:09:30.891Z,11.17
2023-03-19T05:12:33.824Z,11.16
2023-03-19T05:15:38.879Z,11.16
2023-03-19T05:18:43.007Z,11.24
2023-03-19T05:21:45.792Z,11.23
2023-03-19T05:24:48.601Z,11.19
2023-03-19T05:27:51.749Z,11.20
2023-03-19T05:30:56.035Z,11.20
2023-03-19T05:33:58.774Z,11.21
2023-03-19T05:37:01.458Z,11.21
2023-03-19T05:40:04.537Z,11.22
2023-03-19T05:43:07.631Z,11.21
2023-03-19T05:46:11.817Z,11.18
2023-03-19T05:49:14.867Z,11.17
2023-03-19T05:52:17.656Z,11.14
2023-03-19T05:55:20.733Z,11.20
2023-03-19T05:58:23.833Z,11.20
2023-03-19T06:01:28.315Z,11.19
2023-03-19T06:04:31.223Z,11.20
2023-03-19T06:07:34.226Z,11.19
2023-03-19T06:10:37.229Z,11.23
2023-03-19T06:13:40.462Z,11.26
2023-03-19T06:16:44.652Z,11.25
2023-03-19T06:19:47.414Z,11.23
2023-03-19T06:22:50.368Z,11.25
2023-03-19T06:25:53.163Z,11.25
2023-03-19T06:28:55.883Z,11.28
2023-03-19T06:32:00.683Z,11.28
2023-03-19T06:35:03.703Z,11.29
2023-03-19T06:38:07.400Z,11.30
2023-03-19T06:41:10.208Z,11.32
2023-03-19T06:44:12.962Z,11.35
2023-03-19T06:47:17.163Z,11.41
2023-03-19T06:50:20.119Z,11.33
2023-03-19T06:53:22.894Z,11.35
2023-03-19T06:56:26.138Z,11.35
2023-03-19T06:59:28.995Z,11.42
2023-03-19T07:02:33.095Z,11.44
2023-03-19T07:05:35.944Z,11.45
2023-03-19T07:08:38.918Z,11.53
2023-03-19T07:11:42.053Z,11.56
2023-03-19T07:14:44.706Z,11.67
2023-03-19T07:17:49.824Z,11.73
2023-03-19T07:20:52.979Z,11.85
2023-03-19T07:23:55.679Z,11.92
2023-03-19T07:26:58.819Z,11.99
2023-03-19T07:30:01.679Z,12.07
2023-03-19T07:33:07.229Z,12.14
2023-03-19T07:36:11.277Z,12.24
2023-03-19T07:39:14.450Z,12.30
2023-03-19T07:42:17.589Z,12.38
2023-03-19T07:45:20.670Z,12.43
2023-03-19T07:48:24.725Z,12.47
2023-03-19T07:51:27.538Z,12.54
2023-03-19T07:54:31.328Z,12.63
2023-03-19T07:57:34.024Z,12.71
2023-03-19T08:00:37.033Z,12.79
2023-03-19T08:03:41.666Z,12.88
2023-03-19T08:06:44.593Z,12.93
2023-03-19T08:09:47.514Z,12.98
2023-03-19T08:12:50.546Z,13.07
2023-03-19T08:15:53.673Z,13.18
2023-03-19T08:18:57.920Z,13.24
2023-03-19T08:22:00.823Z,13.28
2023-03-19T08:25:03.878Z,13.34
2023-03-19T08:28:09.775Z,13.37
2023-03-19T08:31:14.460Z,13.31
2023-03-19T08:34:18.840Z,13.36
2023-03-19T08:37:21.849Z,13.38
2023-03-19T08:40:25.313Z,13.49
2023-03-19T08:43:28.100Z,13.55
2023-03-19T08:46:31.276Z,13.61
2023-03-19T08:49:35.628Z,13.66
2023-03-19T08:52:40.339Z,13.73
2023-03-19T08:55:44.091Z,13.88
2023-03-19T08:58:46.977Z,13.99
2023-03-19T09:01:52.619Z,14.14
2023-03-19T09:04:56.983Z,14.47
2023-03-19T09:08:00.184Z,14.88
2023-03-19T09:11:03.153Z,15.26
2023-03-19T09:14:05.897Z,15.62
2023-03-19T09:17:09.337Z,15.95
2023-03-19T09:20:14.156Z,16.18
2023-03-19T09:23:16.874Z,16.37
2023-03-19T09:26:19.571Z,16.55
2023-03-19T09:29:22.583Z,16.48
2023-03-19T09:32:25.878Z,16.41
2023-03-19T09:35:31.460Z,16.54
2023-03-19T09:38:34.652Z,16.56
2023-03-19T09:41:47.671Z,16.62
2023-03-19T09:44:53.628Z,16.85
2023-03-19T09:48:04.300Z,17.31
2023-03-19T09:51:16.093Z,17.72
2023-03-19T09:54:28.767Z,17.72
2023-03-19T09:57:33.231Z,17.59
2023-03-19T10:00:38.204Z,17.41
2023-03-19T10:03:47.356Z,17.34
2023-03-19T10:07:00.543Z,17.27
2023-03-19T10:10:33.682Z,17.13
2023-03-19T10:13:54.508Z,17.02
2023-03-19T10:17:01.955Z,17.11
2023-03-19T10:20:10.545Z,17.29
2023-03-19T10:23:42.789Z,17.73
2023-03-19T10:26:47.318Z,18.08
2023-03-19T10:29:50.242Z,18.40
2023-03-19T10:32:58.947Z,18.84
2023-03-19T10:36:06.989Z,19.04
2023-03-19T10:39:14.428Z,19.12
2023-03-19T10:42:41.227Z,18.99
2023-03-19T10:45:44.349Z,19.02
2023-03-19T10:48:47.657Z,19.21
2023-03-19T10:51:51.047Z,19.42
2023-03-19T10:55:02.208Z,19.36
2023-03-19T10:58:07.348Z,19.19
2023-03-19T11:01:13.583Z,18.95
2023-03-19T11:04:19.803Z,18.46
2023-03-19T11:07:34.673Z,18.48
2023-03-19T11:10:48.048Z,18.62
2023-03-19T11:13:50.968Z,18.70
2023-03-19T11:16:58.411Z,18.52
2023-03-19T11:20:19.316Z,18.41
2023-03-19T11:23:22.248Z,18.32
2023-03-19T11:26:28.651Z,18.23
2023-03-19T11:29:32.183Z,18.19
2023-03-19T11:33:04.942Z,18.19
2023-03-19T11:36:13.996Z,18.15
2023-03-19T11:39:28.111Z,18.09
2023-03-19T11:42:47.154Z,18.33
2023-03-19T11:46:01.120Z,18.62
2023-03-19T11:49:22.178Z,18.83
2023-03-19T11:52:32.005Z,18.86
2023-03-19T11:55:42.403Z,18.97
2023-03-19T11:59:07.905Z,18.85
2023-03-19T12:02:37.919Z,18.73
2023-03-19T12:05:50.839Z,18.85
2023-03-19T12:09:01.064Z,18.87
2023-03-19T12:12:15.338Z,18.85
2023-03-19T12:15:25.933Z,19.05
2023-03-19T12:18:47.103Z,19.25
2023-03-19T12:22:00.178Z,19.19
2023-03-19T12:25:24.099Z,19.04
2023-03-19T12:28:30.546Z,18.93
2023-03-19T12:31:52.201Z,18.83
2023-03-19T12:34:58.567Z,18.75
2023-03-19T12:38:08.070Z,18.76
2023-03-19T12:41:12.972Z,18.46
2023-03-19T12:44:21.917Z,18.02
2023-03-19T12:47:31.302Z,17.66
2023-03-19T12:50:39.629Z,17.25
2023-03-19T12:53:48.540Z,16.96
2023-03-19T12:56:59.636Z,16.64
2023-03-19T13:00:07.848Z,16.42
2023-03-19T13:03:19.334Z,16.24
2023-03-19T13:06:28.158Z,16.00
2023-03-19T13:09:35.326Z,15.83
2023-03-19T13:12:39.684Z,15.66
2023-03-19T13:15:48.345Z,15.37
2023-03-19T13:19:03.589Z,15.22
2023-03-19T13:22:11.962Z,15.14
2023-03-19T13:25:21.080Z,15.09
2023-03-19T13:28:29.768Z,15.04
2023-03-19T13:31:36.878Z,15.08
2023-03-19T13:34:41.357Z,15.17
2023-03-19T13:37:45.298Z,15.35
2023-03-19T13:40:50.416Z,15.44
2023-03-19T13:43:54.317Z,15.49
2023-03-19T13:46:57.733Z,15.41
2023-03-19T13:50:25.112Z,15.37
2023-03-19T13:53:40.883Z,15.37
2023-03-19T13:57:31.377Z,15.38
2023-03-19T14:00:58.329Z,15.41
2023-03-19T14:04:04.084Z,15.44
2023-03-19T14:07:20.328Z,15.48
2023-03-19T14:10:29.661Z,15.44
2023-03-19T14:13:36.221Z,15.46
2023-03-19T14:16:43.565Z,15.63
2023-03-19T14:19:46.894Z,15.73
2023-03-19T14:23:12.984Z,16.06
2023-03-19T14:26:19.528Z,16.33
2023-03-19T14:29:26.432Z,16.45
2023-03-19T14:32:35.446Z,16.63
2023-03-19T14:35:45.404Z,16.82
2023-03-19T14:38:53.111Z,16.83
2023-03-19T14:42:01.821Z,16.77
2023-03-19T14:45:44.171Z,16.60
2023-03-19T14:49:17.319Z,16.37
2023-03-19T14:52:24.013Z,16.23
2023-03-19T14:55:37.258Z,16.09
2023-03-19T14:58:49.923Z,15.98
2023-03-19T15:01:54.596Z,15.90
2023-03-19T15:05:00.510Z,15.72
2023-03-19T15:08:06.210Z,15.61
2023-03-19T15:11:25.631Z,15.67
2023-03-19T15:14:49.087Z,15.66
2023-03-19T15:18:03.855Z,15.59
2023-03-19T15:21:07.914Z,15.58
2023-03-19T15:24:17.379Z,15.64
2023-03-19T15:27:22.973Z,15.66
2023-03-19T15:30:29.272Z,15.61
2023-03-19T15:33:40.872Z,15.58
2023-03-19T15:36:45.422Z,15.49
2023-03-19T15:39:52.735Z,15.46
2023-03-19T15:42:59.507Z,15.42
2023-03-19T15:46:02.860Z,15.31
2023-03-19T15:49:11.204Z,15.15
2023-03-19T15:52:19.393Z,15.08
2023-03-19T15:55:22.409Z,15.04
2023-03-19T15:58:30.186Z,14.83
2023-03-19T16:01:34.982Z,14.67
2023-03-19T16:05:01.913Z,14.57
2023-03-19T16:08:02.364Z,14.46
2023-03-19T16:11:17.237Z,14.44
2023-03-19T16:14:27.430Z,14.35
2023-03-19T16:17:36.262Z,14.32
2023-03-19T16:20:45.445Z,14.17
2023-03-19T16:23:53.957Z,14.04
2023-03-19T16:26:58.648Z,13.96
2023-03-19T16:30:03.562Z,13.92
2023-03-19T16:33:07.649Z,13.84
2023-03-19T16:36:14.270Z,13.79
2023-03-19T16:39:39.087Z,13.73
2023-03-19T16:42:43.206Z,13.71
2023-03-19T16:46:33.222Z,13.60
2023-03-19T16:50:01.410Z,13.51
2023-03-19T17:02:25.086Z,13.58
2023-03-19T17:05:29.625Z,13.58
2023-03-19T17:18:00.633Z,13.54
2023-03-19T17:26:42.918Z,13.46
2023-03-19T17:29:46.125Z,13.42
2023-03-19T17:32:50.981Z,13.49
2023-03-19T17:35:56.805Z,13.71
2023-03-19T17:38:59.523Z,13.61
2023-03-19T17:42:02.186Z,13.50
2023-03-19T17:45:05.324Z,13.44
2023-03-19T17:48:15.701Z,13.41
2023-03-19T17:51:20.536Z,13.31
2023-03-19T17:54:25.783Z,13.14
2023-03-19T17:57:28.376Z,13.02
2023-03-19T18:00:31.212Z,12.91
2023-03-19T18:03:36.217Z,12.86
2023-03-19T18:06:43.022Z,12.77
2023-03-19T18:09:45.787Z,12.81
2023-03-19T18:12:49.311Z,12.79
2023-03-19T18:15:51.993Z,12.78
2023-03-19T18:18:55.201Z,12.78
2023-03-19T18:21:59.398Z,12.68
2023-03-19T18:25:02.083Z,12.66
2023-03-19T18:28:05.260Z,12.59
2023-03-19T18:31:15.532Z,12.58
2023-03-19T18:34:18.744Z,12.56
2023-03-19T18:37:23.163Z,12.47
2023-03-19T18:40:27.985Z,12.40
2023-03-19T18:43:30.777Z,12.40
2023-03-19T18:46:34.962Z,12.39
2023-03-19T18:49:37.623Z,12.35
2023-03-19T18:52:41.895Z,12.38
2023-03-19T18:55:45.183Z,12.43
2023-03-19T18:58:48.668Z,12.38
2023-03-19T19:01:52.233Z,12.40
2023-03-19T19:04:54.916Z,12.37
2023-03-19T19:08:00.937Z,12.30
2023-03-19T19:11:05.566Z,12.31
2023-03-19T19:14:16.547Z,12.27
2023-03-19T19:17:24.050Z,12.21
2023-03-19T19:20:28.380Z,12.13
2023-03-19T19:23:32.540Z,12.11
2023-03-19T19:26:37.090Z,12.06
2023-03-19T19:29:39.743Z,12.00
2023-03-19T19:32:42.531Z,11.91
2023-03-19T19:35:45.524Z,11.89
2023-03-19T19:38:51.884Z,11.81
2023-03-19T19:41:56.062Z,11.71
2023-03-19T19:44:59.319Z,11.59
2023-03-19T19:48:01.933Z,11.55
2023-03-19T19:51:04.773Z,11.47
2023-03-19T19:54:08.763Z,11.40
2023-03-19T19:57:19.244Z,11.32
2023-03-19T20:00:23.679Z,11.26
2023-03-19T20:03:28.282Z,11.20
2023-03-19T20:06:30.944Z,11.17
2023-03-19T20:09:34.973Z,11.15
2023-03-19T20:12:37.651Z,11.18
2023-03-19T20:15:40.311Z,11.18
2023-03-19T20:18:43.558Z,11.19
2023-03-19T20:21:46.516Z,11.09
2023-03-19T20:24:51.597Z,11.06
2023-03-19T20:27:58.151Z,11.08
2023-03-19T20:31:01.526Z,11.15
2023-03-19T20:34:04.167Z,11.27
2023-03-19T20:37:06.839Z,11.27
2023-03-19T20:40:12.428Z,11.29
2023-03-19T20:43:27.952Z,11.29
2023-03-19T20:46:31.194Z,11.27
2023-03-19T20:49:33.791Z,11.36
2023-03-19T20:52:36.441Z,11.37
2023-03-19T20:55:42.527Z,11.35
2023-03-19T20:58:46.438Z,11.37
2023-03-19T21:01:49.142Z,11.37
2023-03-19T21:04:51.892Z,11.37
2023-03-19T21:07:55.516Z,11.39
2023-03-19T21:10:59.842Z,11.46
2023-03-19T21:14:02.671Z,11.48
2023-03-19T21:17:05.405Z,11.43
2023-03-19T21:20:08.927Z,11.45
2023-03-19T21:23:19.674Z,11.42
2023-03-19T21:26:27.407Z,11.38
2023-03-19T21:29:34.259Z,11.26
2023-03-19T21:32:37.031Z,11.23
2023-03-19T21:35:39.907Z,11.19
2023-03-19T21:38:43.603Z,11.18
2023-03-19T21:41:48.324Z,11.17
2023-03-19T21:44:57.820Z,11.13
2023-03-19T21:48:21.012Z,11.15
2023-03-19T21:51:25.074Z,11.14
2023-03-19T21:54:27.857Z,11.24
2023-03-19T21:57:32.519Z,11.21
2023-03-19T22:00:36.088Z,11.19
2023-03-19T22:03:38.879Z,11.22
2023-03-19T22:06:43.031Z,11.21
2023-03-19T22:09:46.366Z,11.16
2023-03-19T22:12:51.165Z,11.19
2023-03-19T22:15:55.625Z,11.21
2023-03-19T22:18:58.658Z,11.27
2023-03-19T22:22:01.758Z,11.25
2023-03-19T22:25:04.689Z,11.23
2023-03-19T22:28:16.658Z,11.27
2023-03-19T22:31:19.529Z,11.31
2023-03-19T22:34:24.513Z,11.24
2023-03-19T22:37:28.728Z,11.25
2023-03-19T22:40:31.518Z,11.25
2023-03-19T22:43:37.329Z,11.23
2023-03-19T22:46:40.226Z,11.22
2023-03-19T22:49:44.984Z,11.21
2023-03-19T22:52:47.794Z,11.17
2023-03-19T22:55:50.578Z,11.14
2023-03-19T22:58:54.733Z,11.15
2023-03-19T23:01:58.088Z,11.16
2023-03-19T23:05:02.333Z,11.16
2023-03-19T23:08:06.751Z,11.16
2023-03-19T23:11:09.640Z,11.23
2023-03-19T23:14:26.361Z,11.20
2023-03-19T23:17:31.490Z,11.17
2023-03-19T23:20:34.408Z,11.10
2023-03-19T23:23:37.573Z,11.11
2023-03-19T23:26:44.323Z,11.04
2023-03-19T23:29:48.395Z,11.01
2023-03-19T23:32:51.410Z,11.04
2023-03-19T23:35:55.048Z,11.05
2023-03-19T23:38:59.294Z,10.99
2023-03-19T23:42:02.163Z,10.97
2023-03-19T23:45:07.863Z,11.01
2023-03-19T23:48:15.286Z,10.92
2023-03-19T23:51:18.268Z,10.94
2023-03-19T23:54:29.966Z,10.91
2023-03-19T23:57:33.209Z,10.85
